sensor_id;sensor_type;location;lat;lon;timestamp;pressure;altitude;pressure_sealevel;temperature;humidity
78299;BME280;67556;55.656;12.590;2023-03-01T00:02:14;103065.00;;;2.59;68.79
78299;BME280;67556;55.656;12.590;2023-03-01T00:04:41;103064.50;;;2.54;68.75
78299;BME280;67556;55.656;12.590;2023-03-01T00:07:09;103056.31;;;2.60;67.90
78299;BME280;67556;55.656;12.590;2023-03-01T00:09:37;103046.72;;;2.60;68.26
78299;BME280;67556;55.656;12.590;2023-03-01T00:12:05;103051.38;;;2.63;67.97
78299;BME280;67556;55.656;12.590;2023-03-01T00:14:33;103052.75;;;2.59;68.84
78299;BME280;67556;55.656;12.590;2023-03-01T00:16:59;103046.25;;;2.56;70.13
78299;BME280;67556;55.656;12.590;2023-03-01T00:19:27;103050.47;;;2.71;71.99
78299;BME280;67556;55.656;12.590;2023-03-01T00:21:53;103054.34;;;2.66;71.42
78299;BME280;67556;55.656;12.590;2023-03-01T00:24:21;103059.13;;;2.61;69.30
78299;BME280;67556;55.656;12.590;2023-03-01T00:26:48;103051.22;;;2.61;69.58
78299;BME280;67556;55.656;12.590;2023-03-01T00:29:14;103053.88;;;2.61;69.52
78299;BME280;67556;55.656;12.590;2023-03-01T00:31:41;103050.75;;;2.65;69.09
78299;BME280;67556;55.656;12.590;2023-03-01T00:34:09;103046.72;;;2.60;70.98
78299;BME280;67556;55.656;12.590;2023-03-01T00:36:36;103047.03;;;2.63;69.84
78299;BME280;67556;55.656;12.590;2023-03-01T00:39:04;103042.84;;;2.57;69.95
78299;BME280;67556;55.656;12.590;2023-03-01T00:41:33;103049.53;;;2.62;70.82
78299;BME280;67556;55.656;12.590;2023-03-01T00:44:00;103047.34;;;2.58;69.95
78299;BME280;67556;55.656;12.590;2023-03-01T00:46:26;103042.69;;;2.55;69.94
78299;BME280;67556;55.656;12.590;2023-03-01T00:48:55;103034.59;;;2.28;70.35
78299;BME280;67556;55.656;12.590;2023-03-01T00:51:23;103049.78;;;2.47;69.59
78299;BME280;67556;55.656;12.590;2023-03-01T00:53:51;103047.00;;;2.46;69.66
78299;BME280;67556;55.656;12.590;2023-03-01T00:56:18;103053.53;;;2.49;70.08
78299;BME280;67556;55.656;12.590;2023-03-01T00:58:46;103038.34;;;2.47;70.46
78299;BME280;67556;55.656;12.590;2023-03-01T01:01:14;103027.50;;;2.44;70.77
78299;BME280;67556;55.656;12.590;2023-03-01T01:03:45;103038.66;;;2.50;73.10
78299;BME280;67556;55.656;12.590;2023-03-01T01:06:16;103032.78;;;2.53;74.77
78299;BME280;67556;55.656;12.590;2023-03-01T01:08:42;103023.03;;;2.60;72.82
78299;BME280;67556;55.656;12.590;2023-03-01T01:11:09;103021.19;;;2.59;71.08
78299;BME280;67556;55.656;12.590;2023-03-01T01:13:36;103011.44;;;2.58;70.58
78299;BME280;67556;55.656;12.590;2023-03-01T01:16:06;103014.69;;;2.64;71.31
78299;BME280;67556;55.656;12.590;2023-03-01T01:18:32;103024.16;;;2.62;69.73
78299;BME280;67556;55.656;12.590;2023-03-01T01:21:04;103021.50;;;2.62;69.59
78299;BME280;67556;55.656;12.590;2023-03-01T01:23:31;103003.09;;;2.71;71.83
78299;BME280;67556;55.656;12.590;2023-03-01T01:26:03;103003.09;;;2.71;73.56
78299;BME280;67556;55.656;12.590;2023-03-01T01:28:30;102998.91;;;2.73;72.83
78299;BME280;67556;55.656;12.590;2023-03-01T01:30:59;102999.09;;;2.83;73.43
78299;BME280;67556;55.656;12.590;2023-03-01T01:33:27;102985.75;;;2.82;73.08
78299;BME280;67556;55.656;12.590;2023-03-01T01:35:54;102983.91;;;2.72;74.98
78299;BME280;67556;55.656;12.590;2023-03-01T01:38:21;102982.50;;;2.58;75.62
78299;BME280;67556;55.656;12.590;2023-03-01T01:40:48;102979.44;;;2.88;74.29
78299;BME280;67556;55.656;12.590;2023-03-01T01:43:20;102975.88;;;2.88;71.67
78299;BME280;67556;55.656;12.590;2023-03-01T01:45:48;102975.69;;;2.95;70.76
78299;BME280;67556;55.656;12.590;2023-03-01T01:48:19;102965.81;;;2.84;71.00
78299;BME280;67556;55.656;12.590;2023-03-01T01:50:51;102977.41;;;2.86;72.75
78299;BME280;67556;55.656;12.590;2023-03-01T01:53:20;102977.72;;;2.89;73.02
78299;BME280;67556;55.656;12.590;2023-03-01T01:55:50;102976.47;;;2.94;72.73
78299;BME280;67556;55.656;12.590;2023-03-01T01:58:19;102967.19;;;2.89;70.83
78299;BME280;67556;55.656;12.590;2023-03-01T02:00:48;102966.25;;;2.97;72.25
78299;BME280;67556;55.656;12.590;2023-03-01T02:03:17;102965.34;;;2.88;73.03
78299;BME280;67556;55.656;12.590;2023-03-01T02:05:49;102972.31;;;2.96;69.92
78299;BME280;67556;55.656;12.590;2023-03-01T02:08:20;102962.25;;;2.92;71.50
78299;BME280;67556;55.656;12.590;2023-03-01T02:10:48;102955.13;;;2.91;71.21
78299;BME280;67556;55.656;12.590;2023-03-01T02:13:15;102950.03;;;2.84;72.67
78299;BME280;67556;55.656;12.590;2023-03-01T02:15:42;102948.47;;;2.86;72.96
78299;BME280;67556;55.656;12.590;2023-03-01T02:18:12;102944.44;;;2.89;72.28
78299;BME280;67556;55.656;12.590;2023-03-01T02:20:48;102945.50;;;2.65;74.43
78299;BME280;67556;55.656;12.590;2023-03-01T02:23:18;102940.88;;;2.71;72.01
78299;BME280;67556;55.656;12.590;2023-03-01T02:25:50;102944.75;;;2.75;72.61
78299;BME280;67556;55.656;12.590;2023-03-01T02:28:35;102944.91;;;2.68;73.93
78299;BME280;67556;55.656;12.590;2023-03-01T02:31:03;102953.59;;;2.58;74.79
78299;BME280;67556;55.656;12.590;2023-03-01T02:33:48;102955.75;;;2.80;73.99
78299;BME280;67556;55.656;12.590;2023-03-01T02:36:17;102953.56;;;2.84;72.75
78299;BME280;67556;55.656;12.590;2023-03-01T02:38:46;102953.59;;;2.75;73.70
78299;BME280;67556;55.656;12.590;2023-03-01T02:41:15;102962.06;;;2.73;74.77
78299;BME280;67556;55.656;12.590;2023-03-01T02:43:44;102962.41;;;2.76;75.08
78299;BME280;67556;55.656;12.590;2023-03-01T02:46:16;102960.22;;;2.89;73.27
78299;BME280;67556;55.656;12.590;2023-03-01T02:48:45;102961.00;;;2.88;71.78
78299;BME280;67556;55.656;12.590;2023-03-01T02:51:37;102972.13;;;2.86;70.06
78299;BME280;67556;55.656;12.590;2023-03-01T02:54:14;102972.47;;;2.80;69.86
78299;BME280;67556;55.656;12.590;2023-03-01T02:56:42;102973.06;;;2.78;69.83
78299;BME280;67556;55.656;12.590;2023-03-01T02:59:15;102968.13;;;2.81;72.26
78299;BME280;67556;55.656;12.590;2023-03-01T03:01:42;102974.03;;;2.87;72.60
78299;BME280;67556;55.656;12.590;2023-03-01T03:04:13;102972.59;;;2.82;70.55
78299;BME280;67556;55.656;12.590;2023-03-01T03:06:42;102964.44;;;2.79;71.13
78299;BME280;67556;55.656;12.590;2023-03-01T03:09:08;102956.06;;;2.83;71.38
78299;BME280;67556;55.656;12.590;2023-03-01T03:11:35;102959.91;;;2.86;70.51
78299;BME280;67556;55.656;12.590;2023-03-01T03:14:02;102975.09;;;2.89;70.59
78299;BME280;67556;55.656;12.590;2023-03-01T03:16:31;102969.38;;;2.84;70.61
78299;BME280;67556;55.656;12.590;2023-03-01T03:18:57;102967.66;;;2.85;72.41
78299;BME280;67556;55.656;12.590;2023-03-01T03:21:30;102964.72;;;2.82;70.25
78299;BME280;67556;55.656;12.590;2023-03-01T03:23:56;102959.31;;;2.80;68.85
78299;BME280;67556;55.656;12.590;2023-03-01T03:26:23;102967.53;;;2.66;69.00
78299;BME280;67556;55.656;12.590;2023-03-01T03:28:49;102965.03;;;2.67;70.51
78299;BME280;67556;55.656;12.590;2023-03-01T03:31:16;102957.59;;;2.46;71.23
78299;BME280;67556;55.656;12.590;2023-03-01T03:33:44;102961.00;;;2.62;71.84
78299;BME280;67556;55.656;12.590;2023-03-01T03:36:15;102967.19;;;2.63;69.40
78299;BME280;67556;55.656;12.590;2023-03-01T03:38:43;102959.78;;;2.67;72.16
78299;BME280;67556;55.656;12.590;2023-03-01T03:41:09;102961.47;;;2.67;71.24
78299;BME280;67556;55.656;12.590;2023-03-01T03:43:37;102959.78;;;2.67;71.97
78299;BME280;67556;55.656;12.590;2023-03-01T03:46:05;102956.34;;;2.68;71.52
78299;BME280;67556;55.656;12.590;2023-03-01T03:48:33;102960.09;;;2.70;70.27
78299;BME280;67556;55.656;12.590;2023-03-01T03:51:01;102954.66;;;2.69;70.46
78299;BME280;67556;55.656;12.590;2023-03-01T03:53:31;102943.38;;;2.70;70.98
78299;BME280;67556;55.656;12.590;2023-03-01T03:55:58;102944.59;;;2.65;71.85
78299;BME280;67556;55.656;12.590;2023-03-01T03:58:25;102949.09;;;2.66;71.82
78299;BME280;67556;55.656;12.590;2023-03-01T04:03:27;102938.25;;;2.63;72.69
78299;BME280;67556;55.656;12.590;2023-03-01T04:05:57;102935.94;;;2.57;71.23
78299;BME280;67556;55.656;12.590;2023-03-01T04:08:26;102935.00;;;2.57;70.22
78299;BME280;67556;55.656;12.590;2023-03-01T04:10:57;102919.84;;;2.45;69.60
78299;BME280;67556;55.656;12.590;2023-03-01T04:13:24;102939.97;;;2.45;68.77
78299;BME280;67556;55.656;12.590;2023-03-01T04:15:52;102932.81;;;2.44;69.07
78299;BME280;67556;55.656;12.590;2023-03-01T04:18:20;102931.56;;;2.32;69.84
78299;BME280;67556;55.656;12.590;2023-03-01T04:20:47;102921.69;;;2.38;69.01
78299;BME280;67556;55.656;12.590;2023-03-01T04:23:16;102931.28;;;2.29;68.05
78299;BME280;67556;55.656;12.590;2023-03-01T04:25:48;102926.59;;;2.17;68.47
78299;BME280;67556;55.656;12.590;2023-03-01T04:28:20;102922.13;;;2.16;68.85
78299;BME280;67556;55.656;12.590;2023-03-01T04:30:47;102924.75;;;2.16;70.39
78299;BME280;67556;55.656;12.590;2023-03-01T04:33:15;102919.63;;;2.18;73.24
78299;BME280;67556;55.656;12.590;2023-03-01T04:35:41;102930.59;;;2.05;76.88
78299;BME280;67556;55.656;12.590;2023-03-01T04:38:08;102928.75;;;2.04;77.94
78299;BME280;67556;55.656;12.590;2023-03-01T04:40:35;102917.44;;;2.05;78.51
78299;BME280;67556;55.656;12.590;2023-03-01T04:43:03;102910.25;;;2.29;77.51
78299;BME280;67556;55.656;12.590;2023-03-01T04:45:32;102914.22;;;2.08;78.86
78299;BME280;67556;55.656;12.590;2023-03-01T04:47:59;102910.53;;;2.32;73.54
78299;BME280;67556;55.656;12.590;2023-03-01T04:50:26;102912.41;;;2.24;71.71
78299;BME280;67556;55.656;12.590;2023-03-01T04:52:53;102913.31;;;2.24;71.02
78299;BME280;67556;55.656;12.590;2023-03-01T04:55:24;102906.97;;;2.22;71.01
78299;BME280;67556;55.656;12.590;2023-03-01T04:57:52;102900.78;;;2.13;73.11
78299;BME280;67556;55.656;12.590;2023-03-01T05:00:21;102903.28;;;2.20;75.52
78299;BME280;67556;55.656;12.590;2023-03-01T05:02:51;102896.91;;;2.27;75.21
78299;BME280;67556;55.656;12.590;2023-03-01T05:05:21;102893.69;;;2.30;74.66
78299;BME280;67556;55.656;12.590;2023-03-01T05:07:51;102893.69;;;2.30;74.91
78299;BME280;67556;55.656;12.590;2023-03-01T05:10:19;102900.78;;;2.13;72.94
78299;BME280;67556;55.656;12.590;2023-03-01T05:12:45;102905.56;;;2.17;74.24
78299;BME280;67556;55.656;12.590;2023-03-01T05:15:13;102900.63;;;2.12;74.94
78299;BME280;67556;55.656;12.590;2023-03-01T05:17:41;102892.28;;;2.07;72.83
78299;BME280;67556;55.656;12.590;2023-03-01T05:20:09;102885.16;;;2.15;71.68
78299;BME280;67556;55.656;12.590;2023-03-01T05:22:36;102884.53;;;2.00;72.39
78299;BME280;67556;55.656;12.590;2023-03-01T05:25:03;102883.28;;;2.05;73.17
78299;BME280;67556;55.656;12.590;2023-03-01T05:27:30;102895.03;;;2.00;73.91
78299;BME280;67556;55.656;12.590;2023-03-01T05:29:56;102897.00;;;1.85;74.20
78299;BME280;67556;55.656;12.590;2023-03-01T05:32:23;102894.03;;;1.73;75.68
78299;BME280;67556;55.656;12.590;2023-03-01T05:34:51;102894.28;;;1.59;78.05
78299;BME280;67556;55.656;12.590;2023-03-01T05:37:20;102882.63;;;1.73;75.91
78299;BME280;67556;55.656;12.590;2023-03-01T05:39:46;102893.53;;;1.60;74.36
78299;BME280;67556;55.656;12.590;2023-03-01T05:42:15;102900.94;;;1.64;72.72
78299;BME280;67556;55.656;12.590;2023-03-01T05:44:42;102897.13;;;1.69;71.40
78299;BME280;67556;55.656;12.590;2023-03-01T05:47:08;102899.28;;;1.65;71.34
78299;BME280;67556;55.656;12.590;2023-03-01T05:49:34;102905.44;;;1.65;71.46
78299;BME280;67556;55.656;12.590;2023-03-01T05:52:02;102904.03;;;1.60;72.92
78299;BME280;67556;55.656;12.590;2023-03-01T05:54:29;102899.50;;;1.50;73.00
78299;BME280;67556;55.656;12.590;2023-03-01T05:56:56;102911.72;;;1.50;72.91
78299;BME280;67556;55.656;12.590;2023-03-01T05:59:22;102911.06;;;1.44;74.64
78299;BME280;67556;55.656;12.590;2023-03-01T06:01:48;102910.63;;;1.48;75.69
78299;BME280;67556;55.656;12.590;2023-03-01T06:04:16;102908.63;;;1.54;75.37
78299;BME280;67556;55.656;12.590;2023-03-01T06:06:42;102912.22;;;1.63;75.66
78299;BME280;67556;55.656;12.590;2023-03-01T06:09:10;102913.03;;;1.71;74.35
78299;BME280;67556;55.656;12.590;2023-03-01T06:11:37;102912.69;;;1.68;73.58
78299;BME280;67556;55.656;12.590;2023-03-01T06:14:03;102915.97;;;1.65;73.07
78299;BME280;67556;55.656;12.590;2023-03-01T06:16:31;102914.38;;;1.59;73.90
78299;BME280;67556;55.656;12.590;2023-03-01T06:18:57;102902.03;;;1.66;73.98
78299;BME280;67556;55.656;12.590;2023-03-01T06:21:24;102904.56;;;1.73;73.67
78299;BME280;67556;55.656;12.590;2023-03-01T06:23:51;102905.47;;;1.74;73.29
78299;BME280;67556;55.656;12.590;2023-03-01T06:26:19;102906.34;;;1.57;72.94
78299;BME280;67556;55.656;12.590;2023-03-01T06:28:45;102906.97;;;1.63;72.52
78299;BME280;67556;55.656;12.590;2023-03-01T06:31:12;102890.31;;;1.71;72.58
78299;BME280;67556;55.656;12.590;2023-03-01T06:33:38;102901.63;;;1.79;71.79
78299;BME280;67556;55.656;12.590;2023-03-01T06:36:06;102886.22;;;1.99;71.11
78299;BME280;67556;55.656;12.590;2023-03-01T06:38:33;102892.56;;;2.02;70.78
78299;BME280;67556;55.656;12.590;2023-03-01T06:41:00;102888.72;;;2.07;71.11
78299;BME280;67556;55.656;12.590;2023-03-01T06:43:28;102881.13;;;2.10;71.48
78299;BME280;67556;55.656;12.590;2023-03-01T06:45:55;102897.25;;;2.30;71.44
78299;BME280;67556;55.656;12.590;2023-03-01T06:48:22;102902.22;;;2.53;70.40
78299;BME280;67556;55.656;12.590;2023-03-01T06:50:48;102898.16;;;2.57;69.71
78299;BME280;67556;55.656;12.590;2023-03-01T06:53:15;102907.75;;;2.56;70.95
78299;BME280;67556;55.656;12.590;2023-03-01T06:55:41;102898.34;;;2.67;70.44
78299;BME280;67556;55.656;12.590;2023-03-01T06:58:08;102901.75;;;2.57;71.63
78299;BME280;67556;55.656;12.590;2023-03-01T07:00:36;102900.66;;;2.55;72.31
78299;BME280;67556;55.656;12.590;2023-03-01T07:03:05;102908.22;;;2.61;72.74
78299;BME280;67556;55.656;12.590;2023-03-01T07:05:33;102900.50;;;2.45;73.25
78299;BME280;67556;55.656;12.590;2023-03-01T07:08:00;102914.13;;;2.32;74.42
78299;BME280;67556;55.656;12.590;2023-03-01T07:10:28;102917.94;;;2.18;74.42
78299;BME280;67556;55.656;12.590;2023-03-01T07:12:55;102914.88;;;2.40;73.50
78299;BME280;67556;55.656;12.590;2023-03-01T07:15:22;102910.56;;;2.66;72.73
78299;BME280;67556;55.656;12.590;2023-03-01T07:17:50;102909.91;;;2.78;72.90
78299;BME280;67556;55.656;12.590;2023-03-01T07:20:18;102907.28;;;2.86;72.61
78299;BME280;67556;55.656;12.590;2023-03-01T07:22:49;102917.78;;;2.95;71.66
78299;BME280;67556;55.656;12.590;2023-03-01T07:25:15;102912.38;;;3.02;71.52
78299;BME280;67556;55.656;12.590;2023-03-01T07:27:42;102911.44;;;3.02;71.61
78299;BME280;67556;55.656;12.590;2023-03-01T07:30:09;102905.22;;;3.10;71.44
78299;BME280;67556;55.656;12.590;2023-03-01T07:32:36;102907.53;;;3.15;71.19
78299;BME280;67556;55.656;12.590;2023-03-01T07:35:05;102912.31;;;3.19;71.67
78299;BME280;67556;55.656;12.590;2023-03-01T07:37:32;102913.41;;;3.30;70.93
78299;BME280;67556;55.656;12.590;2023-03-01T07:39:59;102920.16;;;3.37;71.00
78299;BME280;67556;55.656;12.590;2023-03-01T07:42:25;102916.59;;;3.45;71.35
78299;BME280;67556;55.656;12.590;2023-03-01T07:44:54;102910.34;;;3.53;70.81
78299;BME280;67556;55.656;12.590;2023-03-01T07:47:20;102905.09;;;3.53;70.68
78299;BME280;67556;55.656;12.590;2023-03-01T07:49:47;102930.78;;;3.64;70.88
78299;BME280;67556;55.656;12.590;2023-03-01T07:52:15;102923.34;;;3.60;70.20
78299;BME280;67556;55.656;12.590;2023-03-01T07:54:42;102925.56;;;3.56;69.98
78299;BME280;67556;55.656;12.590;2023-03-01T07:57:10;102909.56;;;3.63;69.53
78299;BME280;67556;55.656;12.590;2023-03-01T07:59:37;102920.78;;;3.79;68.67
78299;BME280;67556;55.656;12.590;2023-03-01T08:02:03;102926.59;;;3.94;68.90
78299;BME280;67556;55.656;12.590;2023-03-01T08:04:30;102913.81;;;4.07;68.44
78299;BME280;67556;55.656;12.590;2023-03-01T08:06:57;102918.09;;;4.15;67.98
78299;BME280;67556;55.656;12.590;2023-03-01T08:09:26;102914.34;;;4.22;68.04
78299;BME280;67556;55.656;12.590;2023-03-01T08:11:53;102920.31;;;4.30;67.65
78299;BME280;67556;55.656;12.590;2023-03-01T08:14:21;102912.22;;;4.37;67.20
78299;BME280;67556;55.656;12.590;2023-03-01T08:16:49;102913.56;;;4.42;67.11
78299;BME280;67556;55.656;12.590;2023-03-01T08:19:16;102917.84;;;4.50;66.85
78299;BME280;67556;55.656;12.590;2023-03-01T08:21:42;102913.06;;;4.46;67.10
78299;BME280;67556;55.656;12.590;2023-03-01T08:24:09;102924.16;;;4.61;66.67
78299;BME280;67556;55.656;12.590;2023-03-01T08:26:37;102919.28;;;4.65;66.42
78299;BME280;67556;55.656;12.590;2023-03-01T08:29:05;102921.56;;;4.71;65.91
78299;BME280;67556;55.656;12.590;2023-03-01T08:31:34;102908.28;;;4.80;65.82
78299;BME280;67556;55.656;12.590;2023-03-01T08:34:05;102916.63;;;4.84;65.53
78299;BME280;67556;55.656;12.590;2023-03-01T08:36:35;102912.56;;;4.88;65.43
78299;BME280;67556;55.656;12.590;2023-03-01T08:39:02;102914.44;;;4.89;65.25
78299;BME280;67556;55.656;12.590;2023-03-01T08:41:29;102919.63;;;4.97;64.96
78299;BME280;67556;55.656;12.590;2023-03-01T08:43:57;102909.47;;;5.02;64.52
78299;BME280;67556;55.656;12.590;2023-03-01T08:46:25;102908.94;;;4.77;64.53
78299;BME280;67556;55.656;12.590;2023-03-01T08:48:52;102906.66;;;4.71;62.89
78299;BME280;67556;55.656;12.590;2023-03-01T08:51:20;102902.28;;;4.91;63.13
78299;BME280;67556;55.656;12.590;2023-03-01T08:53:47;102902.56;;;4.94;62.83
78299;BME280;67556;55.656;12.590;2023-03-01T08:56:15;102896.47;;;4.85;63.44
78299;BME280;67556;55.656;12.590;2023-03-01T08:58:43;102906.06;;;5.03;62.89
78299;BME280;67556;55.656;12.590;2023-03-01T09:01:13;102888.56;;;4.95;63.28
78299;BME280;67556;55.656;12.590;2023-03-01T09:03:41;102904.66;;;5.17;62.73
78299;BME280;67556;55.656;12.590;2023-03-01T09:06:09;102909.59;;;5.22;62.65
78299;BME280;67556;55.656;12.590;2023-03-01T09:08:36;102909.84;;;5.25;62.23
78299;BME280;67556;55.656;12.590;2023-03-01T09:11:03;102923.34;;;5.29;62.44
78299;BME280;67556;55.656;12.590;2023-03-01T09:13:30;102914.06;;;5.23;62.77
78299;BME280;67556;55.656;12.590;2023-03-01T09:15:57;102916.34;;;5.39;62.20
78299;BME280;67556;55.656;12.590;2023-03-01T09:18:25;102918.78;;;5.46;61.82
78299;BME280;67556;55.656;12.590;2023-03-01T09:20:52;102918.03;;;5.58;61.54
78299;BME280;67556;55.656;12.590;2023-03-01T09:23:20;102923.06;;;5.65;61.72
78299;BME280;67556;55.656;12.590;2023-03-01T09:25:47;102911.88;;;5.78;61.76
78299;BME280;67556;55.656;12.590;2023-03-01T09:28:14;102923.00;;;5.94;61.55
78299;BME280;67556;55.656;12.590;2023-03-01T09:30:40;102915.06;;;5.94;61.59
78299;BME280;67556;55.656;12.590;2023-03-01T09:33:07;102928.84;;;6.10;61.61
78299;BME280;67556;55.656;12.590;2023-03-01T09:35:41;102933.63;;;6.14;61.78
78299;BME280;67556;55.656;12.590;2023-03-01T09:38:12;102932.19;;;6.18;63.57
78299;BME280;67556;55.656;12.590;2023-03-01T09:40:42;102938.25;;;6.17;64.35
78299;BME280;67556;55.656;12.590;2023-03-01T09:43:15;102941.03;;;6.18;64.67
78299;BME280;67556;55.656;12.590;2023-03-01T09:45:45;102929.09;;;5.93;65.54
78299;BME280;67556;55.656;12.590;2023-03-01T09:48:16;102930.94;;;5.94;66.10
78299;BME280;67556;55.656;12.590;2023-03-01T09:50:45;102945.44;;;5.89;66.39
78299;BME280;67556;55.656;12.590;2023-03-01T09:53:15;102943.50;;;5.86;66.72
78299;BME280;67556;55.656;12.590;2023-03-01T09:55:44;102953.31;;;5.97;66.26
78299;BME280;67556;55.656;12.590;2023-03-01T09:58:28;102946.06;;;6.05;66.33
78299;BME280;67556;55.656;12.590;2023-03-01T10:00:58;102949.75;;;5.97;66.56
78299;BME280;67556;55.656;12.590;2023-03-01T10:03:32;102937.84;;;5.92;67.44
78299;BME280;67556;55.656;12.590;2023-03-01T10:06:06;102940.75;;;5.95;66.84
78299;BME280;67556;55.656;12.590;2023-03-01T10:08:38;102932.53;;;5.92;67.43
78299;BME280;67556;55.656;12.590;2023-03-01T10:11:17;102935.75;;;6.08;66.98
78299;BME280;67556;55.656;12.590;2023-03-01T10:13:48;102942.88;;;6.09;67.12
78299;BME280;67556;55.656;12.590;2023-03-01T10:16:22;102942.38;;;6.03;67.25
78299;BME280;67556;55.656;12.590;2023-03-01T10:18:55;102943.69;;;6.18;66.84
78299;BME280;67556;55.656;12.590;2023-03-01T10:21:25;102951.38;;;6.25;65.99
78299;BME280;67556;55.656;12.590;2023-03-01T10:23:53;102949.00;;;6.29;65.39
78299;BME280;67556;55.656;12.590;2023-03-01T10:26:30;102949.53;;;6.24;65.86
78299;BME280;67556;55.656;12.590;2023-03-01T10:29:05;102933.91;;;6.07;65.14
78299;BME280;67556;55.656;12.590;2023-03-01T10:31:39;102943.03;;;6.21;65.24
78299;BME280;67556;55.656;12.590;2023-03-01T10:34:11;102936.66;;;6.39;65.15
78299;BME280;67556;55.656;12.590;2023-03-01T10:36:41;102946.19;;;6.47;64.82
78299;BME280;67556;55.656;12.590;2023-03-01T10:39:13;102927.16;;;6.52;64.67
78299;BME280;67556;55.656;12.590;2023-03-01T10:41:59;102918.94;;;6.59;64.84
78299;BME280;67556;55.656;12.590;2023-03-01T10:44:45;102921.16;;;6.64;65.04
78299;BME280;67556;55.656;12.590;2023-03-01T10:47:18;102919.06;;;6.70;64.83
78299;BME280;67556;55.656;12.590;2023-03-01T10:50:17;102911.13;;;6.70;65.18
78299;BME280;67556;55.656;12.590;2023-03-01T10:52:58;102903.03;;;6.79;65.00
78299;BME280;67556;55.656;12.590;2023-03-01T10:55:29;102901.78;;;6.86;64.35
78299;BME280;67556;55.656;12.590;2023-03-01T10:58:09;102899.41;;;6.89;63.99
78299;BME280;67556;55.656;12.590;2023-03-01T11:00:48;102905.84;;;7.03;63.95
78299;BME280;67556;55.656;12.590;2023-03-01T11:03:18;102895.09;;;7.11;63.45
78299;BME280;67556;55.656;12.590;2023-03-01T11:06:03;102898.81;;;7.13;63.50
78299;BME280;67556;55.656;12.590;2023-03-01T11:08:46;102891.06;;;7.27;63.10
78299;BME280;67556;55.656;12.590;2023-03-01T11:11:21;102892.63;;;7.24;62.85
78299;BME280;67556;55.656;12.590;2023-03-01T11:13:52;102889.41;;;7.39;62.81
78299;BME280;67556;55.656;12.590;2023-03-01T11:16:27;102885.94;;;7.40;63.75
78299;BME280;67556;55.656;12.590;2023-03-01T11:19:00;102890.09;;;7.58;63.30
78299;BME280;67556;55.656;12.590;2023-03-01T11:21:29;102883.94;;;7.69;62.85
78299;BME280;67556;55.656;12.590;2023-03-01T11:24:06;102882.91;;;7.79;61.75
78299;BME280;67556;55.656;12.590;2023-03-01T11:26:39;102876.69;;;7.79;60.45
78299;BME280;67556;55.656;12.590;2023-03-01T11:29:18;102871.66;;;7.82;58.50
78299;BME280;67556;55.656;12.590;2023-03-01T11:31:48;102877.31;;;7.86;59.25
78299;BME280;67556;55.656;12.590;2023-03-01T11:34:20;102876.00;;;8.03;61.31
78299;BME280;67556;55.656;12.590;2023-03-01T11:36:53;102869.56;;;8.11;60.73
78299;BME280;67556;55.656;12.590;2023-03-01T11:39:28;102871.66;;;8.15;61.70
78299;BME280;67556;55.656;12.590;2023-03-01T11:42:04;102877.28;;;8.08;62.22
78299;BME280;67556;55.656;12.590;2023-03-01T11:44:34;102871.91;;;8.18;62.25
78299;BME280;67556;55.656;12.590;2023-03-01T11:47:16;102873.75;;;8.19;62.00
78299;BME280;67556;55.656;12.590;2023-03-01T11:50:04;102869.69;;;8.24;60.96
78299;BME280;67556;55.656;12.590;2023-03-01T11:52:40;102870.13;;;8.41;61.52
78299;BME280;67556;55.656;12.590;2023-03-01T11:55:27;102864.38;;;8.58;60.13
78299;BME280;67556;55.656;12.590;2023-03-01T11:58:06;102869.03;;;8.72;59.33
78299;BME280;67556;55.656;12.590;2023-03-01T12:00:47;102859.91;;;8.81;58.49
78299;BME280;67556;55.656;12.590;2023-03-01T12:03:28;102857.91;;;8.90;57.80
78299;BME280;67556;55.656;12.590;2023-03-01T12:06:16;102845.31;;;8.99;54.99
78299;BME280;67556;55.656;12.590;2023-03-01T12:08:59;102838.75;;;8.94;53.61
78299;BME280;67556;55.656;12.590;2023-03-01T12:11:41;102842.59;;;9.22;52.93
78299;BME280;67556;55.656;12.590;2023-03-01T12:14:28;102832.44;;;9.29;55.59
78299;BME280;67556;55.656;12.590;2023-03-01T12:17:08;102831.91;;;9.46;57.07
78299;BME280;67556;55.656;12.590;2023-03-01T12:19:55;102837.53;;;9.62;55.84
78299;BME280;67556;55.656;12.590;2023-03-01T12:22:29;102827.53;;;9.71;55.97
78299;BME280;67556;55.656;12.590;2023-03-01T12:25:20;102829.41;;;9.86;54.04
78299;BME280;67556;55.656;12.590;2023-03-01T12:28:22;102829.56;;;9.87;52.35
78299;BME280;67556;55.656;12.590;2023-03-01T12:31:04;102833.19;;;10.14;50.38
78299;BME280;67556;55.656;12.590;2023-03-01T12:33:44;102825.78;;;9.97;54.16
78299;BME280;67556;55.656;12.590;2023-03-01T12:36:39;102836.19;;;10.19;54.14
78299;BME280;67556;55.656;12.590;2023-03-01T12:39:22;102834.53;;;10.46;53.41
78299;BME280;67556;55.656;12.590;2023-03-01T12:41:58;102829.63;;;10.52;51.43
78299;BME280;67556;55.656;12.590;2023-03-01T12:47:36;102824.19;;;11.86;46.49
78299;BME280;67556;55.656;12.590;2023-03-01T12:50:14;102832.81;;;12.40;44.77
78299;BME280;67556;55.656;12.590;2023-03-01T12:52:46;102826.41;;;12.08;43.66
78299;BME280;67556;55.656;12.590;2023-03-01T12:55:24;102820.53;;;12.58;43.09
78299;BME280;67556;55.656;12.590;2023-03-01T12:58:00;102815.72;;;13.13;42.42
78299;BME280;67556;55.656;12.590;2023-03-01T13:00:31;102820.28;;;13.62;42.09
78299;BME280;67556;55.656;12.590;2023-03-01T13:03:10;102820.38;;;13.80;41.04
78299;BME280;67556;55.656;12.590;2023-03-01T13:05:52;102818.25;;;14.41;39.77
78299;BME280;67556;55.656;12.590;2023-03-01T13:08:28;102824.91;;;14.31;38.86
78299;BME280;67556;55.656;12.590;2023-03-01T13:11:00;102818.38;;;14.26;38.41
78299;BME280;67556;55.656;12.590;2023-03-01T13:13:29;102802.00;;;14.54;38.03